Time;durP1;ratioP1;P1;durP2;ratioP2;P2;SDS_P1;SDS_P2;PMS_P1;PMS_P2;Temp;Humidity;BMP_temperature;BMP_pressure;BME280_temperature;BME280_humidity;BME280_pressure;Samples;Min_cycle;Max_cycle;Signal;HPM_P1;HPM_P2
2023/08/04 04:10:41;;;;;;;13.80;4.50;;;;;;;17.17;74.07;98660.11;111362;1230;96593;-91
2023/08/04 04:13:10;;;;;;;7.90;3.80;;;;;;;17.17;74.08;98660.14;109562;1242;109772;-91
2023/08/04 04:15:40;;;;;;;10.00;4.20;;;;;;;17.17;74.09;98654.43;109420;1233;97479;-91
2023/08/04 04:18:11;;;;;;;9.80;4.10;;;;;;;17.17;74.11;98653.73;109022;1235;105653;-90
2023/08/04 04:20:41;;;;;;;8.70;4.10;;;;;;;17.15;74.17;98650.53;108921;1236;97030;-90
2023/08/04 04:23:07;;;;;;;9.30;4.20;;;;;;;17.13;74.23;98641.79;108864;1230;96746;-89
2023/08/04 04:25:40;;;;;;;13.30;4.40;;;;;;;17.14;74.14;98648.31;109647;1233;96547;-91
2023/08/04 04:28:08;;;;;;;8.00;4.00;;;;;;;17.13;74.16;98651.77;109382;1232;96561;-90
2023/08/04 04:30:37;;;;;;;7.00;3.90;;;;;;;17.15;74.23;98649.45;109437;1236;96595;-90
2023/08/04 04:33:06;;;;;;;10.40;4.40;;;;;;;17.16;74.14;98645.99;109570;1234;96586;-92
2023/08/04 05:15:48;;;;;;;5.50;3.30;;;;;;;17.80;74.23;98658.80;111882;1231;96974;-88
2023/08/04 05:18:16;;;;;;;8.30;3.70;;;;;;;17.87;74.15;98652.83;109376;1230;107513;-91
2023/08/04 05:21:32;;;;;;;6.90;3.70;;;;;;;17.94;74.28;98649.14;109546;1237;96640;-90
2023/08/04 05:24:17;;;;;;;;;;;;;;;;;;;;;
2023/08/04 05:27:25;;;;;;;10.10;3.40;;;;;;;18.05;74.25;98657.15;109286;1231;109916;-90
2023/08/04 05:30:45;;;;;;;10.90;4.00;;;;;;;18.08;74.31;98658.65;109293;1231;96565;-90
2023/08/04 05:34:04;;;;;;;;;;;;;;;;;;;;;
2023/08/04 05:36:58;;;;;;;7.90;3.30;;;;;;;18.10;74.31;98669.73;109498;1241;96561;-91
2023/08/04 05:40:19;;;;;;;9.20;3.80;;;;;;;18.12;74.20;98679.67;109411;1235;96531;-91
2023/08/04 05:42:40;;;;;;;7.10;3.40;;;;;;;18.14;74.32;98678.05;109438;1233;109379;-91
2023/08/04 05:45:09;;;;;;;6.80;3.20;;;;;;;18.17;74.32;98678.98;109358;1236;97485;-91
2023/08/04 05:47:53;;;;;;;;;;;;;;;;;;;;;
2023/08/04 08:58:33;;;;;;;7.80;3.20;;;;;;;22.17;71.08;98753.23;109518;1234;96573;-92
2023/08/04 09:01:06;;;;;;;6.30;3.30;;;;;;;22.14;71.26;98750.67;109644;1234;109736;-91
2023/08/04 09:03:38;;;;;;;9.00;3.50;;;;;;;22.11;71.02;98751.27;109450;1238;96579;-91
2023/08/04 09:06:06;;;;;;;5.40;3.20;;;;;;;22.07;71.05;98753.52;109631;1230;106977;-91
2023/08/04 09:08:43;;;;;;;4.60;2.90;;;;;;;22.02;70.92;98751.27;109379;1232;96583;-91
2023/08/04 09:11:32;;;;;;;5.40;3.40;;;;;;;22.00;70.67;98746.52;109409;1234;96608;-92
2023/08/04 09:14:02;;;;;;;8.10;3.60;;;;;;;22.04;70.76;98752.58;109489;1232;108723;-91
2023/08/04 09:16:39;;;;;;;8.10;3.30;;;;;;;22.06;70.68;98758.55;109209;1235;96626;-90
2023/08/04 09:19:42;;;;;;;8.80;3.20;;;;;;;22.06;70.50;98761.97;109504;1244;107335;-89
2023/08/04 09:22:15;;;;;;;8.00;3.60;;;;;;;22.06;70.53;98764.59;109504;1229;96873;-91
2023/08/04 09:25:07;;;;;;;7.30;3.70;;;;;;;22.06;70.57;98769.30;109216;1238;96648;-91
2023/08/04 09:27:38;;;;;;;9.40;3.90;;;;;;;22.06;70.37;98773.42;109751;1230;109805;-90
2023/08/04 09:30:09;;;;;;;8.80;3.60;;;;;;;22.02;70.47;98770.64;109119;1232;96587;-91
2023/08/04 09:32:48;;;;;;;7.40;3.60;;;;;;;22.02;70.26;98766.13;109346;1234;106226;-91
2023/08/04 09:35:17;;;;;;;10.10;3.90;;;;;;;22.03;70.12;98769.77;108997;1239;97942;-90
2023/08/04 09:37:44;;;;;;;9.90;4.00;;;;;;;22.06;70.20;98770.14;109208;1234;97233;-90
2023/08/04 09:40:21;;;;;;;6.80;3.50;;;;;;;22.09;70.05;98766.58;109385;1237;96662;-91
2023/08/04 09:43:00;;;;;;;8.60;3.70;;;;;;;22.12;70.14;98768.27;109867;1232;97744;-91
2023/08/04 09:45:55;;;;;;;9.40;3.70;;;;;;;22.14;70.07;98767.84;109695;1239;107492;-91
2023/08/04 09:48:29;;;;;;;7.50;3.70;;;;;;;22.18;69.93;98778.66;109443;1234;97813;-90
2023/08/04 09:51:14;;;;;;;5.20;3.20;;;;;;;22.19;69.97;98779.92;109486;1236;96605;-90
2023/08/04 09:54:00;;;;;;;7.40;3.30;;;;;;;22.23;69.83;98780.29;109186;1232;109676;-91
2023/08/04 09:56:28;;;;;;;13.10;4.50;;;;;;;22.26;69.81;98776.24;109148;1238;96690;-91
2023/08/04 09:58:58;;;;;;;6.20;3.20;;;;;;;22.29;69.68;98776.96;109182;1238;106670;-91
2023/08/04 10:01:52;;;;;;;9.90;3.30;;;;;;;22.34;69.54;98778.98;109068;1231;97069;-91
2023/08/04 10:04:21;;;;;;;4.80;2.90;;;;;;;22.37;69.62;98776.88;109272;1242;96489;-91
2023/08/04 10:06:57;;;;;;;8.70;3.50;;;;;;;22.37;69.26;98778.52;109660;1231;109588;-91
2023/08/04 10:09:26;;;;;;;5.10;3.40;;;;;;;22.35;69.32;98779.94;109292;1240;96566;-90
2023/08/04 10:11:55;;;;;;;5.30;2.80;;;;;;;22.32;69.23;98780.55;109524;1237;107610;-90
2023/08/04 10:14:24;;;;;;;7.30;3.30;;;;;;;22.32;69.07;98780.20;109318;1246;97777;-91
2023/08/04 10:16:52;;;;;;;9.20;3.30;;;;;;;22.34;69.13;98775.30;109424;1236;96480;-90
2023/08/04 10:19:23;;;;;;;4.50;3.10;;;;;;;22.38;68.97;98770.26;109329;1238;109929;-91
2023/08/04 10:21:51;;;;;;;6.80;2.90;;;;;;;22.42;68.83;98764.73;109315;1232;96619;-91
2023/08/04 10:24:21;;;;;;;4.10;2.50;;;;;;;22.45;68.74;98759.46;109323;1235;106120;-91
2023/08/04 10:26:53;;;;;;;5.00;2.70;;;;;;;22.48;68.41;98754.48;109143;1238;96618;-91
2023/08/04 10:33:23;;;;;;;4.90;2.30;;;;;;;22.59;68.49;98734.73;109684;1236;109776;-92
2023/08/04 10:36:15;;;;;;;7.60;2.60;;;;;;;22.68;68.53;98731.77;109516;1232;96556;-92
2023/08/04 10:38:49;;;;;;;5.50;3.00;;;;;;;22.82;68.54;98735.65;109637;1236;107322;-89
2023/08/04 10:41:56;;;;;;;5.80;2.50;;;;;;;23.00;68.08;98735.88;110179;1231;96451;-91
2023/08/04 10:45:05;;;;;;;6.70;2.60;;;;;;;23.12;67.94;98728.25;109842;1232;96580;-91
2023/08/04 10:47:54;;;;;;;5.30;1.80;;;;;;;23.23;67.99;98721.48;110053;1232;109772;-91
2023/08/04 10:50:27;;;;;;;5.90;2.50;;;;;;;23.32;67.71;98720.06;109267;1232;97046;-91
2023/08/04 10:52:57;;;;;;;8.60;2.90;;;;;;;23.39;67.80;98717.66;109363;1232;107479;-92
2023/08/04 10:59:38;;;;;;;6.00;2.50;;;;;;;23.48;66.91;98719.27;109449;1237;96573;-90
2023/08/04 11:02:10;;;;;;;5.90;2.80;;;;;;;23.51;67.01;98712.39;109352;1236;109764;-90
2023/08/04 11:04:56;;;;;;;12.50;2.90;;;;;;;23.53;67.08;98708.47;109462;1236;96507;-91
2023/08/04 11:07:30;;;;;;;7.30;2.60;;;;;;;23.56;66.74;98706.23;109285;1232;108039;-90
2023/08/04 11:10:44;;;;;;;5.60;2.90;;;;;;;23.62;66.69;98705.77;109120;1234;96462;-91
2023/08/04 11:13:17;;;;;;;4.80;2.20;;;;;;;23.72;66.59;98703.46;109222;1237;96468;-91
2023/08/04 11:15:51;;;;;;;5.10;2.40;;;;;;;23.78;66.66;98706.31;109090;1232;109785;-92
2023/08/04 11:18:26;;;;;;;6.90;2.60;;;;;;;23.80;66.41;98708.40;109119;1232;96655;-91
2023/08/04 11:20:53;;;;;;;5.70;2.60;;;;;;;23.83;66.23;98707.51;109132;1232;107553;-89
2023/08/04 11:23:31;;;;;;;7.50;2.40;;;;;;;23.74;66.15;98705.72;109085;1237;97495;-91
2023/08/04 11:26:04;;;;;;;5.70;2.40;;;;;;;23.73;66.16;98703.55;109234;1239;96651;-90
2023/08/04 11:28:32;;;;;;;7.40;2.80;;;;;;;23.72;66.01;98705.43;108995;1237;109714;-90
2023/08/04 11:31:09;;;;;;;6.20;2.60;;;;;;;23.72;65.91;98700.20;109250;1232;96381;-91
2023/08/04 11:34:02;;;;;;;4.40;2.60;;;;;;;23.75;65.98;98702.52;109541;1236;106944;-91
2023/08/04 11:36:31;;;;;;;7.30;2.60;;;;;;;23.81;65.88;98705.24;109391;1232;96606;-91
2023/08/04 11:38:58;;;;;;;4.80;2.10;;;;;;;23.85;65.70;98700.51;109461;1236;96578;-92
2023/08/04 11:41:28;;;;;;;5.10;2.30;;;;;;;23.84;65.33;98697.30;109482;1238;96597;-91
2023/08/04 11:43:59;;;;;;;5.20;2.70;;;;;;;23.83;65.53;98695.00;109240;1231;96547;-91
2023/08/04 11:46:31;;;;;;;5.50;2.80;;;;;;;23.92;65.39;98693.67;109213;1231;107572;-90
2023/08/04 11:49:06;;;;;;;5.20;2.80;;;;;;;24.03;65.14;98695.34;109210;1232;96484;-92
2023/08/04 11:51:34;;;;;;;7.30;3.00;;;;;;;24.01;64.86;98692.86;109253;1237;96566;-91
2023/08/04 11:54:02;;;;;;;6.50;2.70;;;;;;;24.00;64.81;98702.94;109490;1232;109743;-92
2023/08/04 11:56:44;;;;;;;9.00;3.00;;;;;;;23.98;64.88;98701.48;109390;1239;96548;-91
2023/08/04 11:59:12;;;;;;;5.60;2.70;;;;;;;23.98;64.57;98696.79;109403;1232;106174;-91
2023/08/04 12:01:42;;;;;;;8.40;2.80;;;;;;;23.97;64.41;98696.11;109355;1232;96572;-91
2023/08/04 12:05:15;;;;;;;4.30;2.90;;;;;;;23.92;64.21;98697.46;109262;1238;96849;-92
2023/08/04 12:07:45;;;;;;;5.70;3.10;;;;;;;23.85;64.20;98703.73;109180;1240;110241;-92
2023/08/04 12:10:14;;;;;;;7.50;2.80;;;;;;;23.82;63.99;98706.48;109015;1235;96621;-91
2023/08/04 12:12:44;;;;;;;5.40;2.60;;;;;;;23.79;63.96;98706.11;109123;1240;107231;-91
2023/08/04 12:15:14;;;;;;;7.20;2.90;;;;;;;23.76;63.81;98709.95;109097;1240;96768;-92
2023/08/04 12:17:45;;;;;;;8.00;3.00;;;;;;;23.76;63.86;98709.86;109131;1235;96922;-92
2023/08/04 12:20:13;;;;;;;4.80;2.80;;;;;;;23.80;63.79;98709.95;109087;1235;109757;-92
2023/08/04 12:22:44;;;;;;;7.30;3.00;;;;;;;23.84;63.51;98711.46;109032;1231;96462;-92
2023/08/04 12:25:35;;;;;;;5.20;3.10;;;;;;;23.90;63.74;98715.68;109425;1238;107876;-91
2023/08/04 12:28:05;;;;;;;8.40;3.10;;;;;;;23.95;63.76;98715.95;109127;1231;96564;-91
2023/08/04 12:30:34;;;;;;;7.80;2.90;;;;;;;24.01;63.70;98715.77;109534;1231;96640;-92
2023/08/04 12:33:01;;;;;;;9.10;3.50;;;;;;;24.03;63.35;98719.61;109374;1240;96573;-92
2023/08/04 12:35:31;;;;;;;5.70;2.90;;;;;;;24.02;63.23;98716.27;109505;1236;97373;-92
2023/08/04 12:38:04;;;;;;;6.10;2.90;;;;;;;24.00;63.27;98712.02;109361;1232;107231;-89
2023/08/04 12:40:33;;;;;;;8.80;2.90;;;;;;;23.98;62.89;98714.84;109339;1231;97863;-91
2023/08/04 12:43:00;;;;;;;5.90;3.00;;;;;;;23.93;62.76;98715.14;109346;1237;96606;-92
2023/08/04 12:45:28;;;;;;;8.60;3.40;;;;;;;23.92;62.94;98707.42;109310;1235;96617;-91
2023/08/04 12:47:55;;;;;;;6.80;3.10;;;;;;;23.98;62.81;98707.09;109238;1232;96704;-92
2023/08/04 12:50:22;;;;;;;11.90;3.30;;;;;;;24.00;62.88;98707.41;109453;1231;96611;-92
2023/08/04 12:52:48;;;;;;;7.20;3.30;;;;;;;24.02;62.76;98704.23;108930;1241;97070;-92
2023/08/04 12:55:15;;;;;;;6.50;3.20;;;;;;;24.00;62.61;98694.45;109490;1238;97904;-91
2023/08/04 12:57:51;;;;;;;3.90;2.80;;;;;;;24.02;62.82;98695.30;110091;1237;109807;-90
2023/08/04 13:00:21;;;;;;;6.30;3.20;;;;;;;24.04;62.67;98701.68;109661;1240;96910;-90
2023/08/04 13:02:54;;;;;;;7.60;3.80;;;;;;;24.07;62.68;98706.45;109809;1237;106789;-91
2023/08/04 13:05:41;;;;;;;5.10;3.50;;;;;;;24.11;62.26;98716.23;109887;1232;97278;-90
2023/08/04 13:08:08;;;;;;;11.40;3.60;;;;;;;24.13;62.33;98713.43;109520;1238;96690;-90
2023/08/04 13:10:35;;;;;;;6.90;3.20;;;;;;;24.15;62.28;98705.73;109108;1237;96561;-89
2023/08/04 13:13:02;;;;;;;6.20;2.80;;;;;;;24.21;62.17;98708.71;109284;1232;96598;-90
2023/08/04 13:15:31;;;;;;;3.70;2.90;;;;;;;24.27;62.26;98714.05;109127;1232;96496;-91
2023/08/04 13:17:59;;;;;;;6.60;3.20;;;;;;;24.34;61.90;98725.00;109300;1237;96596;-91
2023/08/04 13:20:29;;;;;;;9.60;3.30;;;;;;;24.36;61.96;98720.91;109270;1238;96585;-91
2023/08/04 13:22:59;;;;;;;7.90;3.60;;;;;;;24.40;61.88;98720.88;109423;1237;96701;-91
2023/08/04 13:25:26;;;;;;;6.70;3.40;;;;;;;24.37;61.55;98722.26;109412;1235;96656;-90
2023/08/04 13:27:56;;;;;;;13.00;3.80;;;;;;;24.34;61.52;98722.92;109169;1231;107304;-90
2023/08/04 13:30:23;;;;;;;8.50;4.00;;;;;;;24.38;61.92;98724.63;109149;1232;96720;-91
2023/08/04 13:32:50;;;;;;;8.30;3.90;;;;;;;24.47;61.88;98720.89;109403;1237;95252;-92
2023/08/04 13:35:26;;;;;;;7.30;3.20;;;;;;;24.55;61.86;98718.63;109273;1238;96579;-91
2023/08/04 13:38:32;;;;;;;8.90;3.40;;;;;;;24.63;61.88;98723.65;109500;1238;97414;-89
2023/08/04 13:41:00;;;;;;;8.20;3.70;;;;;;;24.69;61.68;98720.54;109614;1232;106214;-91
2023/08/04 13:43:27;;;;;;;7.40;3.50;;;;;;;24.74;61.81;98720.93;109646;1232;97398;-90
2023/08/04 13:45:58;;;;;;;6.70;3.60;;;;;;;24.78;61.70;98725.40;109529;1244;96577;-91
2023/08/04 13:48:48;;;;;;;9.10;3.90;;;;;;;24.77;61.56;98729.63;108901;1241;110010;-91
2023/08/04 13:51:20;;;;;;;7.80;4.10;;;;;;;24.67;61.59;98730.28;108877;1243;96714;-90
2023/08/04 13:54:28;;;;;;;7.90;3.60;;;;;;;24.58;61.37;98739.46;108666;1241;106146;-91
2023/08/04 13:56:55;;;;;;;7.20;3.40;;;;;;;24.51;61.47;98737.24;108463;1240;97450;-91
2023/08/04 13:59:25;;;;;;;5.90;3.00;;;;;;;24.49;61.38;98740.34;108451;1244;96584;-91
2023/08/04 14:01:55;;;;;;;6.30;3.10;;;;;;;24.48;61.35;98738.80;108712;1244;109802;-91
2023/08/04 14:04:24;;;;;;;7.30;3.20;;;;;;;24.47;61.38;98738.92;108758;1241;96603;-92
2023/08/04 14:06:57;;;;;;;7.70;3.40;;;;;;;24.52;61.37;98742.34;108857;1235;105975;-91
2023/08/04 14:09:45;;;;;;;9.40;3.40;;;;;;;24.60;61.36;98742.55;109080;1238;96737;-89
2023/08/04 14:12:13;;;;;;;5.00;2.70;;;;;;;24.64;61.24;98744.93;109309;1235;96675;-91
2023/08/04 14:14:40;;;;;;;7.00;3.60;;;;;;;24.68;61.20;98749.39;109286;1237;109740;-91
2023/08/04 14:17:07;;;;;;;9.00;3.90;;;;;;;24.73;61.19;98744.80;109459;1232;96602;-90
2023/08/04 14:19:34;;;;;;;10.20;3.80;;;;;;;24.76;61.18;98743.80;109344;1237;97933;-91
2023/08/04 14:22:01;;;;;;;7.40;3.60;;;;;;;24.74;60.84;98743.94;109240;1238;97823;-90
2023/08/04 14:24:32;;;;;;;9.60;3.80;;;;;;;24.73;61.00;98741.55;109559;1232;96510;-91
2023/08/04 14:27:04;;;;;;;12.00;3.70;;;;;;;24.77;61.06;98744.81;109378;1234;109959;-91
2023/08/04 14:29:31;;;;;;;7.10;3.40;;;;;;;24.86;61.03;98746.84;109356;1237;96591;-92
2023/08/04 14:32:03;;;;;;;9.80;3.50;;;;;;;24.92;61.03;98745.23;109559;1236;107139;-90
2023/08/04 14:34:31;;;;;;;5.90;3.50;;;;;;;24.92;60.76;98736.91;109379;1236;96564;-90
2023/08/04 14:37:03;;;;;;;8.70;3.60;;;;;;;24.85;60.52;98738.58;108817;1237;548626;-91
2023/08/04 14:39:30;;;;;;;9.10;3.40;;;;;;;24.77;60.41;98738.67;109581;1232;109822;-91
2023/08/04 14:41:57;;;;;;;10.90;3.60;;;;;;;24.70;60.75;98739.73;109238;1239;96590;-90
2023/08/04 14:44:31;;;;;;;8.50;3.60;;;;;;;24.69;60.76;98741.27;109351;1232;96690;-91
2023/08/04 14:47:22;;;;;;;8.00;3.50;;;;;;;24.70;60.43;98747.31;109445;1235;96582;-92
2023/08/04 14:49:49;;;;;;;11.20;3.70;;;;;;;24.63;60.33;98743.48;109332;1231;96480;-91
2023/08/04 14:52:16;;;;;;;6.40;3.50;;;;;;;24.57;60.32;98747.45;109424;1232;96467;-91
2023/08/04 14:54:43;;;;;;;7.40;3.60;;;;;;;24.51;60.43;98746.06;109191;1245;96524;-92
2023/08/04 14:57:10;;;;;;;6.80;3.30;;;;;;;24.47;60.53;98743.82;109164;1244;97091;-92
2023/08/04 14:59:40;;;;;;;6.80;3.40;;;;;;;24.49;60.65;98745.98;109209;1238;96757;-92
2023/08/04 15:02:12;;;;;;;7.50;3.30;;;;;;;24.53;60.63;98744.05;109439;1236;96694;-92
2023/08/04 15:04:40;;;;;;;7.90;3.60;;;;;;;24.52;60.63;98740.55;109576;1232;108642;-92
2023/08/04 15:07:07;;;;;;;8.50;3.60;;;;;;;24.50;60.58;98736.77;109545;1232;96545;-91
2023/08/04 15:09:34;;;;;;;8.50;3.60;;;;;;;24.50;60.69;98734.23;109186;1232;96580;-91
2023/08/04 15:12:01;;;;;;;8.50;3.50;;;;;;;24.51;60.72;98732.36;109490;1237;96554;-92
2023/08/04 15:14:28;;;;;;;7.30;3.20;;;;;;;24.51;60.62;98731.94;109392;1237;96525;-91
2023/08/04 15:17:00;;;;;;;8.90;3.90;;;;;;;24.47;60.53;98737.75;109741;1243;96494;-91
2023/08/04 15:25:53;;;;;;;6.50;3.60;;;;;;;24.51;60.63;98722.61;110260;1229;96599;-89
2023/08/04 15:28:21;;;;;;;10.00;4.00;;;;;;;24.56;60.74;98721.36;109326;1234;96608;-90
2023/08/04 15:30:48;;;;;;;5.90;3.20;;;;;;;24.59;60.59;98727.00;109161;1230;109743;-91
2023/08/04 15:33:18;;;;;;;6.60;3.10;;;;;;;24.59;60.61;98723.36;109208;1236;96615;-91
2023/08/04 15:35:48;;;;;;;10.80;4.10;;;;;;;24.53;60.49;98721.81;109175;1235;107375;-91
2023/08/04 15:38:15;;;;;;;7.80;3.50;;;;;;;24.42;60.57;98722.08;108945;1236;96582;-90
2023/08/04 15:40:42;;;;;;;6.60;3.60;;;;;;;24.38;60.58;98721.46;109025;1237;96670;-92
2023/08/04 15:43:10;;;;;;;9.30;4.00;;;;;;;24.35;60.56;98719.24;108982;1234;96487;-91
2023/08/04 15:45:38;;;;;;;5.10;3.40;;;;;;;24.32;60.64;98723.17;109180;1230;96571;-91
2023/08/04 15:48:04;;;;;;;11.60;4.10;;;;;;;24.24;60.56;98727.52;109013;1236;96526;-92
2023/08/04 15:50:31;;;;;;;8.30;3.70;;;;;;;24.17;60.55;98728.23;109427;1237;96545;-91
2023/08/04 15:52:58;;;;;;;5.50;3.30;;;;;;;24.08;60.48;98725.09;110007;1230;96631;-92
2023/08/04 15:55:25;;;;;;;7.90;3.60;;;;;;;24.01;60.53;98722.88;109579;1236;97162;-91
2023/08/04 15:57:53;;;;;;;6.80;3.50;;;;;;;23.93;60.42;98725.63;109214;1231;97815;-91
2023/08/04 16:00:21;;;;;;;5.20;3.20;;;;;;;23.87;60.50;98728.26;109099;1232;96617;-92
2023/08/04 16:02:48;;;;;;;11.10;4.40;;;;;;;23.79;60.42;98726.37;109365;1243;96560;-92
2023/08/04 16:05:15;;;;;;;7.40;3.60;;;;;;;23.74;60.60;98724.73;109266;1235;96570;-91
2023/08/04 16:07:42;;;;;;;8.60;3.90;;;;;;;23.70;60.64;98723.26;108986;1232;96655;-91
2023/08/04 16:10:09;;;;;;;8.60;3.70;;;;;;;23.69;60.68;98721.20;109478;1230;97498;-91
2023/08/04 16:12:37;;;;;;;10.50;4.10;;;;;;;23.67;60.72;98717.32;109164;1236;96620;-91
2023/08/04 16:15:04;;;;;;;10.60;3.60;;;;;;;23.65;60.69;98714.35;109195;1230;97486;-91
2023/08/04 16:17:33;;;;;;;6.90;3.70;;;;;;;23.63;60.80;98714.64;109163;1237;96567;-91
2023/08/04 16:19:59;;;;;;;7.60;3.90;;;;;;;23.61;60.80;98717.15;109324;1234;97825;-91
2023/08/04 16:22:26;;;;;;;12.00;4.40;;;;;;;23.58;60.87;98719.77;109011;1236;96576;-92
2023/08/04 16:24:53;;;;;;;11.30;4.20;;;;;;;23.55;60.76;98721.60;109029;1236;97811;-91
2023/08/04 16:27:24;;;;;;;9.70;3.80;;;;;;;23.54;60.88;98720.38;109317;1231;96551;-91
2023/08/04 16:29:51;;;;;;;7.10;3.70;;;;;;;23.53;60.93;98719.88;109357;1232;108449;-92
2023/08/04 16:32:17;;;;;;;9.90;4.20;;;;;;;23.51;60.89;98714.17;109175;1232;97789;-91
2023/08/04 16:34:44;;;;;;;7.40;3.90;;;;;;;23.48;60.99;98713.80;109185;1230;96658;-91
2023/08/04 16:37:11;;;;;;;8.30;4.10;;;;;;;23.46;60.92;98717.14;109088;1243;97817;-90
2023/08/04 16:39:38;;;;;;;11.30;4.20;;;;;;;23.45;61.02;98715.59;109286;1235;96580;-92
2023/08/04 16:42:06;;;;;;;9.50;3.60;;;;;;;23.44;61.24;98713.34;109435;1236;96585;-92
2023/08/04 16:44:33;;;;;;;6.90;3.20;;;;;;;23.42;61.17;98708.04;109245;1237;96763;-91
2023/08/04 16:56:40;;;;;;;7.90;3.30;;;;;;;23.29;61.30;98730.23;112149;1228;108972;-91
2023/08/04 16:59:08;;;;;;;8.40;4.00;;;;;;;23.27;61.39;98729.51;108867;1237;96712;-89
2023/08/04 17:01:37;;;;;;;7.40;3.70;;;;;;;23.25;61.37;98732.05;108481;1239;96661;-89
2023/08/04 17:04:05;;;;;;;10.20;3.60;;;;;;;23.19;61.42;98732.45;108783;1237;96593;-91
2023/08/04 17:06:32;;;;;;;5.40;3.20;;;;;;;23.15;61.58;98732.33;108905;1237;96571;-91
2023/08/04 17:09:00;;;;;;;7.80;3.30;;;;;;;23.11;61.54;98732.21;108843;1245;96685;-90
2023/08/04 17:11:28;;;;;;;9.20;3.40;;;;;;;23.08;61.63;98741.95;108957;1233;96685;-91
2023/08/04 17:13:55;;;;;;;7.90;3.60;;;;;;;23.08;61.66;98746.97;109120;1235;108023;-90
2023/08/04 17:16:22;;;;;;;7.20;3.50;;;;;;;23.09;61.79;98741.38;109357;1238;96615;-89
2023/08/04 17:18:49;;;;;;;9.80;4.00;;;;;;;23.09;61.95;98737.41;109005;1233;96587;-91
2023/08/04 17:21:19;;;;;;;7.40;3.80;;;;;;;23.09;62.00;98736.98;109052;1237;96532;-90
2023/08/04 17:23:47;;;;;;;7.80;3.70;;;;;;;23.09;62.21;98734.33;108705;1233;97914;-90
2023/08/04 17:26:15;;;;;;;9.50;3.90;;;;;;;23.07;62.12;98737.23;108960;1232;96658;-90
2023/08/04 17:28:41;;;;;;;8.10;4.30;;;;;;;23.06;62.14;98740.11;109104;1237;96637;-91
2023/08/04 17:31:09;;;;;;;11.90;4.40;;;;;;;23.02;62.27;98739.13;109087;1236;96529;-90
2023/08/04 17:33:36;;;;;;;14.80;5.10;;;;;;;22.98;62.38;98740.42;108836;1237;96508;-90
2023/08/04 17:36:04;;;;;;;8.20;4.30;;;;;;;22.95;62.43;98748.16;108446;1239;96658;-89
2023/08/04 17:38:33;;;;;;;7.00;3.70;;;;;;;22.90;62.37;98751.55;108683;1238;96608;-90
2023/08/04 17:41:03;;;;;;;10.90;4.20;;;;;;;22.86;62.49;98752.64;108709;1236;96580;-89
2023/08/04 17:43:34;;;;;;;11.20;4.30;;;;;;;22.81;62.56;98750.61;108283;1238;96648;-89
2023/08/04 17:46:00;;;;;;;11.00;4.30;;;;;;;22.77;62.56;98754.48;108345;1239;109178;-88
2023/08/04 17:48:27;;;;;;;10.20;4.20;;;;;;;22.73;62.70;98753.61;108609;1233;96491;-89
2023/08/04 17:50:57;;;;;;;14.60;4.80;;;;;;;22.69;62.88;98749.20;108595;1237;96604;-91
2023/08/04 17:53:25;;;;;;;12.90;5.20;;;;;;;22.63;62.89;98745.91;108293;1239;96587;-92
2023/08/04 17:55:53;;;;;;;19.80;6.80;;;;;;;22.55;62.67;98744.52;108308;1235;96520;-91
2023/08/04 17:58:20;;;;;;;14.30;4.70;;;;;;;22.47;63.05;98752.13;108556;1237;109402;-91
2023/08/04 18:00:47;;;;;;;96.20;41.00;;;;;;;22.40;63.32;98755.63;108728;1237;96590;-89
2023/08/04 18:03:15;;;;;;;63.70;27.00;;;;;;;22.34;63.27;98762.34;109165;1239;107719;-89
2023/08/04 18:05:42;;;;;;;36.40;14.80;;;;;;;22.27;63.24;98769.70;109368;1238;96691;-90
2023/08/04 18:08:10;;;;;;;18.90;7.80;;;;;;;22.21;63.52;98774.69;108966;1235;97081;-91
2023/08/04 18:10:42;;;;;;;16.40;6.20;;;;;;;22.13;63.59;98769.79;108365;1238;109856;-88
2023/08/04 18:13:10;;;;;;;11.70;4.60;;;;;;;22.06;63.66;98772.73;108485;1233;96583;-89
2023/08/04 18:15:37;;;;;;;8.40;4.30;;;;;;;21.99;63.51;98778.52;108542;1233;107219;-90
2023/08/04 18:18:04;;;;;;;9.80;4.60;;;;;;;21.94;63.69;98782.77;108735;1233;96684;-89
2023/08/04 18:20:32;;;;;;;8.80;4.60;;;;;;;21.87;63.71;98787.08;108884;1235;96596;-90
2023/08/04 18:23:01;;;;;;;7.00;4.10;;;;;;;21.80;63.93;98785.24;108900;1239;97219;-88
2023/08/04 18:25:31;;;;;;;9.50;4.20;;;;;;;21.74;63.99;98788.52;108894;1233;96484;-90
